Time;durP1;ratioP1;P1;durP2;ratioP2;P2;SDS_P1;SDS_P2;PMS_P1;PMS_P2;Temp;Humidity;BMP_temperature;BMP_pressure;BME280_temperature;BME280_humidity;BME280_pressure;Samples;Min_cycle;Max_cycle;Signal;HPM_P1;HPM_P2
2024/01/05 00:39:20;;;;;;;;;;;;;;;8.46;63.89;98748.16;1086017;46;1711;-78
2024/01/05 00:40:20;;;;;;;;;;;;;;;8.41;64.29;98753.13;1085266;54;1080;-78
2024/01/05 00:41:24;;;;;;;;;;;;;;;8.39;64.12;98755.13;1084475;47;1405;-78
2024/01/05 00:42:25;;;;;;;;;;;;;;;8.44;64.01;98744.81;1084938;47;1185;-76
2024/01/05 00:43:40;;;;;;;;;;;;;;;8.48;63.96;98764.00;1085089;54;1235;-76
2024/01/05 00:44:42;;;;;;;;;;;;;;;8.46;63.70;98758.81;1087172;54;1153;-76
2024/01/05 00:45:45;;;;;;;;;;;;;;;8.51;63.78;98756.50;1087345;54;1884;-78
2024/01/05 00:46:46;;;;;;;;;;;;;;;8.54;63.80;98758.03;1088116;47;1365;-76
2024/01/05 00:47:49;;;;;;;;;;;;;;;8.52;63.79;98747.53;1087690;47;1166;-79
2024/01/05 00:49:01;;;;;;;;;;;;;;;8.48;63.55;98756.84;1086721;47;1230;-78
2024/01/05 00:50:06;;;;;;;;;;;;;;;8.43;63.75;98748.47;1086485;47;1142;-77
2024/01/05 00:51:07;;;;;;;;;;;;;;;8.35;64.16;98757.28;1086452;54;1880;-78
2024/01/05 00:52:10;;;;;;;;;;;;;;;8.34;63.81;98760.09;1085476;54;1086;-78
2024/01/05 00:53:10;;;;;;;;;;;;;;;8.27;64.20;98759.91;1084941;47;1897;-78
2024/01/05 00:54:11;;;;;;;;;;;;;;;8.17;64.29;98767.22;1084339;47;1522;-78
2024/01/05 00:55:18;;;;;;;;;;;;;;;8.20;64.22;98761.53;1085444;54;1099;-78
2024/01/05 00:56:18;;;;;;;;;;;;;;;8.19;64.10;98774.03;1084559;47;1151;-78
2024/01/05 00:57:19;;;;;;;;;;;;;;;8.08;64.63;98769.00;1084664;47;1593;-78
2024/01/05 00:58:22;;;;;;;;;;;;;;;8.02;64.84;98774.97;1084426;47;1496;-77
2024/01/05 00:59:23;;;;;;;;;;;;;;;7.95;64.75;98772.09;1084756;47;1547;-77
2024/01/05 01:00:26;;;;;;;;;;;;;;;8.00;64.94;98768.97;1084706;54;1322;-77
2024/01/05 01:01:27;;;;;;;;;;;;;;;8.04;64.68;98770.28;1083923;54;1403;-77
2024/01/05 01:02:31;;;;;;;;;;;;;;;7.96;65.11;98784.41;1084085;54;1079;-77
2024/01/05 01:03:32;;;;;;;;;;;;;;;7.89;65.01;98778.91;1083905;54;1077;-76
2024/01/05 01:04:36;;;;;;;;;;;;;;;7.90;65.01;98788.53;1084448;54;1118;-78
2024/01/05 01:05:37;;;;;;;;;;;;;;;7.82;65.40;98785.84;1084327;54;1038;-78
2024/01/05 01:06:40;;;;;;;;;;;;;;;7.85;65.37;98782.03;1084044;54;1933;-78
2024/01/05 01:07:40;;;;;;;;;;;;;;;7.84;65.34;98775.03;1084320;47;1698;-77
2024/01/05 01:08:44;;;;;;;;;;;;;;;7.80;65.45;98779.84;1084593;54;1145;-78
2024/01/05 01:09:45;;;;;;;;;;;;;;;7.76;65.61;98778.47;1083719;54;1098;-77
2024/01/05 01:10:48;;;;;;;;;;;;;;;7.80;65.58;98779.84;1083549;54;1374;-77
2024/01/05 01:11:52;;;;;;;;;;;;;;;7.78;65.76;98779.16;1083719;54;1282;-76
2024/01/05 01:12:52;;;;;;;;;;;;;;;7.84;65.37;98783.84;1084230;47;1083;-76
2024/01/05 01:13:56;;;;;;;;;;;;;;;7.82;65.61;98780.53;1085246;47;1113;-77
2024/01/05 01:14:58;;;;;;;;;;;;;;;7.78;65.58;98777.34;1083987;47;1096;-77
2024/01/05 01:16:01;;;;;;;;;;;;;;;7.81;65.83;98771.69;1084645;46;1651;-78
2024/01/05 01:17:02;;;;;;;;;;;;;;;7.86;65.75;98773.88;1084491;46;1097;-76
2024/01/05 01:18:05;;;;;;;;;;;;;;;7.90;65.45;98779.72;1084648;46;1123;-76
2024/01/05 01:19:06;;;;;;;;;;;;;;;7.90;65.46;98777.91;1084466;54;1088;-77
2024/01/05 01:20:08;;;;;;;;;;;;;;;7.91;65.35;98778.72;1084060;47;1510;-77
2024/01/05 01:21:11;;;;;;;;;;;;;;;7.96;65.28;98773.78;1083962;47;1771;-77
2024/01/05 01:22:12;;;;;;;;;;;;;;;7.94;65.42;98779.22;1084040;54;1374;-78
2024/01/05 01:23:15;;;;;;;;;;;;;;;7.94;65.43;98778.41;1084002;47;1623;-77
2024/01/05 01:24:16;;;;;;;;;;;;;;;7.91;65.65;98782.25;1084439;47;1494;-77
2024/01/05 01:25:20;;;;;;;;;;;;;;;7.94;65.34;98783.75;1084756;47;1517;-77
2024/01/05 01:26:23;;;;;;;;;;;;;;;7.87;65.37;98780.06;1085051;54;1864;-77
2024/01/05 01:27:27;;;;;;;;;;;;;;;7.82;65.73;98788.50;1084846;47;1492;-77
2024/01/05 01:28:28;;;;;;;;;;;;;;;7.77;65.63;98793.44;1084227;54;1113;-77
2024/01/05 01:29:31;;;;;;;;;;;;;;;7.76;65.71;98794.44;1083250;47;1082;-77
2024/01/05 01:30:31;;;;;;;;;;;;;;;7.78;65.96;98789.81;1084792;54;1463;-77
2024/01/05 01:31:35;;;;;;;;;;;;;;;7.73;65.89;98778.81;1084907;54;1311;-77
2024/01/05 01:32:36;;;;;;;;;;;;;;;7.71;66.08;98786.09;1084606;47;1095;-78
2024/01/05 01:33:41;;;;;;;;;;;;;;;7.74;66.00;98781.31;1084145;47;1755;-77
2024/01/05 01:34:42;;;;;;;;;;;;;;;7.70;65.90;98779.94;1084551;54;1454;-76
2024/01/05 01:35:46;;;;;;;;;;;;;;;7.63;66.15;98785.06;1084838;54;1383;-75
2024/01/05 01:36:46;;;;;;;;;;;;;;;7.65;66.09;98780.41;1084845;54;1374;-75
2024/01/05 01:37:50;;;;;;;;;;;;;;;7.65;66.28;98783.06;1084115;46;1091;-78
2024/01/05 01:38:50;;;;;;;;;;;;;;;7.62;66.09;98783.41;1084305;47;1142;-76
2024/01/05 01:39:54;;;;;;;;;;;;;;;7.71;66.16;98776.28;1084121;54;1192;-76
2024/01/05 01:40:56;;;;;;;;;;;;;;;7.83;66.00;98766.22;1084376;54;1102;-75
2024/01/05 01:42:03;;;;;;;;;;;;;;;7.89;65.70;98752.28;1085185;54;1149;-77
2024/01/05 01:43:03;;;;;;;;;;;;;;;7.96;65.39;98749.81;1085167;47;1547;-77
2024/01/05 01:44:07;;;;;;;;;;;;;;;7.90;65.60;98756.63;1084886;54;1610;-77
2024/01/05 01:45:08;;;;;;;;;;;;;;;7.97;65.64;98760.31;1084148;47;1091;-77
2024/01/05 01:46:12;;;;;;;;;;;;;;;8.01;65.54;98755.50;1083499;47;1841;-78
2024/01/05 01:47:13;;;;;;;;;;;;;;;7.96;65.24;98745.31;1084600;54;1137;-77
2024/01/05 01:48:14;;;;;;;;;;;;;;;8.03;65.05;98734.88;1085298;47;1114;-77
2024/01/05 01:49:17;;;;;;;;;;;;;;;8.06;65.04;98736.38;1084221;54;1173;-77
2024/01/05 01:50:18;;;;;;;;;;;;;;;8.09;65.11;98736.88;1084217;46;1224;-78
2024/01/05 01:51:22;;;;;;;;;;;;;;;8.09;65.01;98738.72;1084629;54;1459;-77
2024/01/05 01:52:23;;;;;;;;;;;;;;;8.15;64.88;98735.41;1084242;47;1086;-77
2024/01/05 01:53:27;;;;;;;;;;;;;;;8.21;64.57;98733.94;1084039;54;1677;-77
2024/01/05 01:54:32;;;;;;;;;;;;;;;8.21;64.56;98732.13;1084549;54;1182;-77
2024/01/05 01:55:33;;;;;;;;;;;;;;;8.23;64.32;98732.78;1083213;47;1768;-78
2024/01/05 01:56:37;;;;;;;;;;;;;;;8.24;64.32;98728.28;1084225;54;1349;-78
2024/01/05 01:57:40;;;;;;;;;;;;;;;8.27;63.91;98727.94;1084504;54;1238;-75
2024/01/05 01:58:44;;;;;;;;;;;;;;;8.37;63.88;98722.50;1084582;47;1573;-76
2024/01/05 01:59:45;;;;;;;;;;;;;;;8.39;63.38;98717.84;1083683;47;1243;-77
2024/01/05 02:00:49;;;;;;;;;;;;;;;8.42;63.29;98714.84;1084551;54;1131;-77
2024/01/05 02:01:49;;;;;;;;;;;;;;;8.37;63.24;98712.66;1084473;47;1604;-76
2024/01/05 02:02:54;;;;;;;;;;;;;;;8.38;63.37;98703.69;1084557;54;1135;-76
2024/01/05 02:03:55;;;;;;;;;;;;;;;8.35;63.18;98697.84;1084779;54;1042;-76
2024/01/05 02:04:59;;;;;;;;;;;;;;;8.35;62.89;98698.72;1084689;47;1331;-76
2024/01/05 02:06:00;;;;;;;;;;;;;;;8.36;62.77;98696.88;1084797;47;1174;-78
2024/01/05 02:07:03;;;;;;;;;;;;;;;8.32;62.98;98700.84;1084718;47;1852;-77
2024/01/05 02:08:05;;;;;;;;;;;;;;;8.28;62.87;98701.19;1084762;54;1123;-76
2024/01/05 02:09:08;;;;;;;;;;;;;;;8.26;63.09;98700.50;1084284;47;1132;-78
2024/01/05 02:10:09;;;;;;;;;;;;;;;8.20;63.18;98703.84;1084664;54;1170;-76
2024/01/05 02:11:12;;;;;;;;;;;;;;;8.15;63.48;98698.16;1084803;47;1409;-78
2024/01/05 02:12:13;;;;;;;;;;;;;;;8.11;63.37;98691.50;1084582;54;1669;-78
2024/01/05 02:13:19;;;;;;;;;;;;;;;8.21;63.16;98692.19;1084540;47;1110;-76
2024/01/05 02:14:20;;;;;;;;;;;;;;;8.20;63.14;98684.34;1084150;47;1409;-76
2024/01/05 02:15:24;;;;;;;;;;;;;;;8.08;62.97;98683.81;1085010;47;1458;-76
2024/01/05 02:16:25;;;;;;;;;;;;;;;8.20;63.17;98687.84;1085403;54;1484;-77
2024/01/05 02:17:31;;;;;;;;;;;;;;;8.26;62.61;98689.84;1084148;54;1201;-77
2024/01/05 02:18:32;;;;;;;;;;;;;;;8.33;62.46;98694.53;1084655;47;1509;-77
2024/01/05 02:19:35;;;;;;;;;;;;;;;8.30;62.74;98690.34;1084397;47;1109;-76
2024/01/05 02:20:36;;;;;;;;;;;;;;;8.33;62.42;98691.84;1085214;54;1166;-76
2024/01/05 02:21:39;;;;;;;;;;;;;;;8.31;62.13;98685.88;1084482;47;1376;-76
2024/01/05 02:22:45;;;;;;;;;;;;;;;8.31;62.26;98692.03;1084825;47;1656;-76
2024/01/05 02:23:50;;;;;;;;;;;;;;;8.36;61.81;98684.38;1084036;47;1230;-76
2024/01/05 02:24:51;;;;;;;;;;;;;;;8.38;61.79;98685.03;1083870;47;2209;-75
2024/01/05 02:25:56;;;;;;;;;;;;;;;8.27;62.10;98688.88;1084332;47;1488;-76
2024/01/05 02:26:56;;;;;;;;;;;;;;;8.32;62.13;98693.69;1085030;47;1903;-76
2024/01/05 02:27:57;;;;;;;;;;;;;;;8.20;61.93;98695.84;1083779;47;1023;-78
2024/01/05 02:29:00;;;;;;;;;;;;;;;8.12;62.35;98695.81;1083968;54;1457;-76
2024/01/05 02:30:01;;;;;;;;;;;;;;;8.17;62.03;98708.66;1083700;54;1154;-76
2024/01/05 02:31:06;;;;;;;;;;;;;;;8.07;62.39;98696.31;1083313;47;1344;-75
2024/01/05 02:32:07;;;;;;;;;;;;;;;8.16;62.14;98689.16;1083256;46;1361;-76
2024/01/05 02:33:10;;;;;;;;;;;;;;;8.17;62.42;98688.16;1083904;54;1596;-76
2024/01/05 02:34:11;;;;;;;;;;;;;;;8.20;62.24;98690.53;1083961;47;1395;-76
2024/01/05 02:35:12;;;;;;;;;;;;;;;8.23;62.00;98690.16;1084605;47;1281;-75
2024/01/05 02:36:16;;;;;;;;;;;;;;;8.21;62.32;98678.03;1084969;47;1225;-76
2024/01/05 02:37:16;;;;;;;;;;;;;;;8.10;62.67;98684.50;1084709;54;1135;-76
2024/01/05 02:38:17;;;;;;;;;;;;;;;8.22;62.41;98679.69;1084275;47;1515;-76
2024/01/05 02:39:23;;;;;;;;;;;;;;;8.16;62.57;98675.03;1084465;47;1184;-75
2024/01/05 02:40:24;;;;;;;;;;;;;;;8.16;62.57;98677.69;1084640;54;1183;-76
2024/01/05 02:41:27;;;;;;;;;;;;;;;8.14;62.33;98672.50;1084573;54;1517;-76
2024/01/05 02:42:27;;;;;;;;;;;;;;;8.07;62.53;98666.19;1084776;47;1521;-76
2024/01/05 02:43:31;;;;;;;;;;;;;;;8.16;62.21;98672.38;1084776;47;1149;-76
2024/01/05 02:44:32;;;;;;;;;;;;;;;8.14;62.51;98669.84;1084359;47;1831;-76
2024/01/05 02:45:33;;;;;;;;;;;;;;;8.23;62.43;98671.53;1084895;47;1154;-75
2024/01/05 02:46:37;;;;;;;;;;;;;;;8.19;62.33;98677.34;1084790;54;1854;-76
2024/01/05 02:47:37;;;;;;;;;;;;;;;8.20;62.49;98679.88;1084432;47;1509;-76
2024/01/05 02:48:38;;;;;;;;;;;;;;;8.23;62.47;98679.53;1084493;54;1202;-76
2024/01/05 02:49:41;;;;;;;;;;;;;;;8.23;62.12;98676.84;1084556;47;1559;-75
2024/01/05 02:50:42;;;;;;;;;;;;;;;8.09;62.55;98674.84;1084537;47;1554;-75
2024/01/05 02:51:45;;;;;;;;;;;;;;;8.06;62.61;98664.50;1084544;54;1347;-75
2024/01/05 02:52:46;;;;;;;;;;;;;;;8.10;62.65;98661.38;1084578;47;1158;-75
2024/01/05 02:53:51;;;;;;;;;;;;;;;8.18;62.47;98660.56;1084568;47;1153;-75
2024/01/05 02:54:55;;;;;;;;;;;;;;;8.19;62.54;98664.03;1084724;47;1236;-76
2024/01/05 02:55:58;;;;;;;;;;;;;;;8.23;62.28;98652.09;1084683;47;1171;-76
2024/01/05 02:56:58;;;;;;;;;;;;;;;8.27;62.42;98648.06;1084370;47;1131;-76
2024/01/05 02:58:04;;;;;;;;;;;;;;;8.23;62.07;98655.56;1084652;54;1098;-75
2024/01/05 02:59:05;;;;;;;;;;;;;;;8.21;62.23;98654.91;1084539;47;1083;-76
2024/01/05 03:00:09;;;;;;;;;;;;;;;8.26;62.00;98647.25;1084549;46;1253;-75
2024/01/05 03:01:14;;;;;;;;;;;;;;;8.20;62.28;98655.06;1084116;47;1293;-75
2024/01/05 03:02:15;;;;;;;;;;;;;;;8.18;62.33;98657.03;1084385;47;1158;-76
2024/01/05 03:03:18;;;;;;;;;;;;;;;8.16;62.46;98654.56;1084493;47;998;-75
2024/01/05 03:04:19;;;;;;;;;;;;;;;8.10;62.80;98660.53;1084413;54;1149;-78
2024/01/05 03:05:23;;;;;;;;;;;;;;;8.08;62.79;98660.69;1084287;47;1232;-75
2024/01/05 03:06:24;;;;;;;;;;;;;;;7.97;63.02;98663.66;1084462;47;1469;-75
2024/01/05 03:07:28;;;;;;;;;;;;;;;7.92;63.44;98672.16;1084028;47;1852;-75
2024/01/05 03:08:29;;;;;;;;;;;;;;;7.94;63.17;98664.81;1084228;54;1178;-75
2024/01/05 03:09:30;;;;;;;;;;;;;;;7.88;63.50;98667.31;1084436;54;1076;-75
2024/01/05 03:10:35;;;;;;;;;;;;;;;7.85;63.84;98662.28;1085147;54;1166;-75
2024/01/05 03:11:37;;;;;;;;;;;;;;;7.77;64.05;98668.41;1084663;54;1276;-75
2024/01/05 03:12:38;;;;;;;;;;;;;;;7.76;63.88;98669.41;1084797;47;1408;-75
2024/01/05 03:13:41;;;;;;;;;;;;;;;7.72;63.78;98668.06;1084608;54;1134;-75
2024/01/05 03:14:43;;;;;;;;;;;;;;;7.68;63.98;98661.38;1084596;54;1125;-76
2024/01/05 03:15:46;;;;;;;;;;;;;;;7.62;64.05;98660.19;1084494;47;1174;-75
2024/01/05 03:16:47;;;;;;;;;;;;;;;7.64;63.94;98653.75;1084810;47;1180;-75
2024/01/05 03:17:50;;;;;;;;;;;;;;;7.66;64.13;98661.56;1085334;54;1008;-75
2024/01/05 03:18:51;;;;;;;;;;;;;;;7.62;64.00;98661.06;1085232;54;1111;-75
2024/01/05 03:19:52;;;;;;;;;;;;;;;7.63;64.13;98662.72;1084597;47;1182;-75
2024/01/05 03:20:55;;;;;;;;;;;;;;;7.61;64.17;98659.38;1084607;54;1518;-75
2024/01/05 03:21:56;;;;;;;;;;;;;;;7.59;64.35;98664.03;1084670;47;1389;-75
2024/01/05 03:22:59;;;;;;;;;;;;;;;7.54;64.53;98661.00;1085157;54;1065;-75
2024/01/05 03:24:00;;;;;;;;;;;;;;;7.58;64.30;98653.56;1084847;47;1153;-75
2024/01/05 03:25:04;;;;;;;;;;;;;;;7.60;64.34;98651.56;1084747;54;1170;-75
2024/01/05 03:26:10;;;;;;;;;;;;;;;7.59;64.07;98640.09;1084529;54;1531;-75
2024/01/05 03:27:14;;;;;;;;;;;;;;;7.65;64.21;98642.09;1084442;47;1855;-75
2024/01/05 03:28:15;;;;;;;;;;;;;;;7.68;63.85;98637.44;1084366;47;1534;-75
2024/01/05 03:29:16;;;;;;;;;;;;;;;7.69;64.09;98639.13;1084971;47;1193;-77
2024/01/05 03:30:19;;;;;;;;;;;;;;;7.70;64.05;98636.28;1084812;54;1079;-75
2024/01/05 03:31:20;;;;;;;;;;;;;;;7.79;63.81;98639.81;1086045;54;1359;-75
2024/01/05 03:32:21;;;;;;;;;;;;;;;7.74;64.01;98636.81;1085406;54;1486;-76
2024/01/05 03:33:24;;;;;;;;;;;;;;;7.76;64.25;98634.81;1085161;47;1099;-75
2024/01/05 03:34:25;;;;;;;;;;;;;;;7.80;64.09;98636.19;1085360;54;1128;-76
2024/01/05 03:35:26;;;;;;;;;;;;;;;7.79;63.83;98650.47;1085114;54;1430;-75
2024/01/05 03:36:30;;;;;;;;;;;;;;;7.78;64.21;98646.13;1084889;47;976;-75
2024/01/05 03:37:30;;;;;;;;;;;;;;;7.76;63.99;98630.34;1084988;47;1146;-75
2024/01/05 03:38:34;;;;;;;;;;;;;;;7.74;63.85;98635.00;1085141;54;1457;-76
2024/01/05 03:39:34;;;;;;;;;;;;;;;7.69;64.28;98647.94;1084750;47;1164;-75
2024/01/05 03:40:37;;;;;;;;;;;;;;;7.65;64.31;98641.28;1085228;47;1054;-76
2024/01/05 03:41:41;;;;;;;;;;;;;;;7.67;64.22;98635.78;1085052;47;1376;-76
2024/01/05 03:42:44;;;;;;;;;;;;;;;7.75;64.04;98633.16;1084709;54;1133;-75
2024/01/05 03:43:45;;;;;;;;;;;;;;;7.77;64.13;98626.69;1084252;54;1173;-76
2024/01/05 03:44:49;;;;;;;;;;;;;;;7.78;64.14;98622.19;1084843;54;1161;-75
2024/01/05 03:45:50;;;;;;;;;;;;;;;7.82;63.88;98626.22;1084816;47;1167;-76
2024/01/05 03:46:53;;;;;;;;;;;;;;;7.79;64.14;98618.53;1084436;46;1924;-75
2024/01/05 03:47:54;;;;;;;;;;;;;;;7.86;63.90;98616.88;1084727;54;1170;-76
2024/01/05 03:48:57;;;;;;;;;;;;;;;7.77;64.09;98618.72;1086051;47;1189;-76
2024/01/05 03:49:58;;;;;;;;;;;;;;;7.81;64.07;98617.38;1086573;47;1131;-76
2024/01/05 03:51:01;;;;;;;;;;;;;;;7.83;63.74;98614.56;1086778;54;1193;-77
2024/01/05 03:52:02;;;;;;;;;;;;;;;7.82;63.65;98607.59;1086244;54;1282;-76
2024/01/05 03:53:05;;;;;;;;;;;;;;;7.83;63.96;98614.56;1086338;54;1211;-77
2024/01/05 03:54:06;;;;;;;;;;;;;;;7.87;63.66;98605.25;1086770;54;1031;-77
2024/01/05 03:55:08;;;;;;;;;;;;;;;7.88;63.58;98603.44;1086822;47;1290;-77
2024/01/05 03:56:12;;;;;;;;;;;;;;;7.89;63.45;98615.72;1086706;54;1138;-76
2024/01/05 03:57:15;;;;;;;;;;;;;;;7.86;63.70;98608.91;1086603;54;1162;-76
2024/01/05 03:58:18;;;;;;;;;;;;;;;7.87;63.81;98615.91;1085914;46;1071;-76
2024/01/05 03:59:19;;;;;;;;;;;;;;;7.93;63.38;98615.28;1085977;46;1072;-76
2024/01/05 04:00:23;;;;;;;;;;;;;;;7.93;63.38;98615.28;1086283;54;1186;-77
2024/01/05 04:01:23;;;;;;;;;;;;;;;7.90;63.60;98612.06;1085946;47;1322;-76
2024/01/05 04:02:26;;;;;;;;;;;;;;;7.89;63.59;98605.94;1086738;47;1095;-76
2024/01/05 04:03:27;;;;;;;;;;;;;;;7.89;63.34;98607.75;1086398;54;1204;-77
2024/01/05 04:04:31;;;;;;;;;;;;;;;7.92;63.29;98602.97;1086084;47;1222;-76
2024/01/05 04:05:32;;;;;;;;;;;;;;;7.90;63.58;98604.94;1086140;47;1084;-76
2024/01/05 04:06:35;;;;;;;;;;;;;;;7.86;63.57;98600.94;1086557;54;1091;-76
2024/01/05 04:07:36;;;;;;;;;;;;;;;7.90;63.21;98609.41;1085599;54;1868;-76
2024/01/05 04:08:41;;;;;;;;;;;;;;;7.89;63.37;98599.75;1085640;47;1208;-76
2024/01/05 04:09:42;;;;;;;;;;;;;;;7.87;63.42;98601.78;1085901;54;1158;-76
2024/01/05 04:10:45;;;;;;;;;;;;;;;7.88;63.13;98600.78;1086915;54;1173;-76
2024/01/05 04:11:45;;;;;;;;;;;;;;;7.90;63.43;98593.44;1087728;54;1307;-76
2024/01/05 04:12:51;;;;;;;;;;;;;;;7.89;63.16;98595.28;1088123;47;856;-75
2024/01/05 04:13:52;;;;;;;;;;;;;;;7.86;63.04;98589.47;1087910;54;1068;-77
2024/01/05 04:14:57;;;;;;;;;;;;;;;7.84;63.19;98588.78;1088316;54;1164;-76
2024/01/05 04:15:57;;;;;;;;;;;;;;;7.78;63.44;98595.59;1088337;54;1221;-75
2024/01/05 04:17:01;;;;;;;;;;;;;;;7.79;63.21;98586.63;1087365;54;1087;-75
2024/01/05 04:18:01;;;;;;;;;;;;;;;7.81;63.15;98595.28;1086106;47;1015;-76
2024/01/05 04:19:05;;;;;;;;;;;;;;;7.87;63.19;98594.63;1085326;54;1137;-76
2024/01/05 04:20:06;;;;;;;;;;;;;;;7.84;63.28;98583.47;1085486;54;1149;-74
2024/01/05 04:21:06;;;;;;;;;;;;;;;7.94;63.05;98578.84;1085107;54;1370;-75
2024/01/05 04:22:10;;;;;;;;;;;;;;;7.96;62.48;98577.66;1085469;54;1290;-75
2024/01/05 04:23:10;;;;;;;;;;;;;;;8.00;62.51;98580.00;1084906;47;1054;-75
2024/01/05 04:24:14;;;;;;;;;;;;;;;8.02;62.45;98567.38;1084877;47;1333;-76
2024/01/05 04:25:15;;;;;;;;;;;;;;;8.04;62.52;98562.69;1085218;47;1131;-75
2024/01/05 04:26:15;;;;;;;;;;;;;;;8.08;62.17;98564.88;1085415;54;1547;-74
2024/01/05 04:27:19;;;;;;;;;;;;;;;8.11;61.97;98555.75;1084875;47;1895;-75
2024/01/05 04:28:22;;;;;;;;;;;;;;;8.09;62.02;98555.06;1085633;54;1472;-75
2024/01/05 04:29:25;;;;;;;;;;;;;;;8.10;62.23;98554.06;1085770;54;1446;-75
2024/01/05 04:30:26;;;;;;;;;;;;;;;8.13;62.02;98556.38;1085715;47;1522;-76
2024/01/05 04:31:29;;;;;;;;;;;;;;;8.14;61.75;98558.06;1084764;54;1379;-76
2024/01/05 04:32:29;;;;;;;;;;;;;;;8.09;61.86;98557.72;1086236;54;1465;-76
2024/01/05 04:33:33;;;;;;;;;;;;;;;8.06;62.09;98560.72;1085892;54;1509;-76
2024/01/05 04:34:34;;;;;;;;;;;;;;;8.07;61.81;98557.06;1085056;54;1090;-76
2024/01/05 04:35:37;;;;;;;;;;;;;;;8.05;61.89;98553.72;1085578;54;1169;-76
2024/01/05 04:36:41;;;;;;;;;;;;;;;8.03;61.88;98553.06;1085190;54;1213;-76
2024/01/05 04:37:41;;;;;;;;;;;;;;;8.02;61.97;98548.75;1085352;54;1220;-77
2024/01/05 04:38:44;;;;;;;;;;;;;;;8.01;61.97;98547.91;1085668;54;1084;-76
2024/01/05 04:39:45;;;;;;;;;;;;;;;8.01;61.85;98555.06;1086121;54;1572;-76
2024/01/05 04:40:49;;;;;;;;;;;;;;;8.04;61.97;98547.56;1086412;47;955;-76
2024/01/05 04:41:49;;;;;;;;;;;;;;;8.02;61.83;98544.25;1086562;54;1308;-76
2024/01/05 04:42:53;;;;;;;;;;;;;;;7.96;61.96;98550.25;1086814;54;1251;-76
2024/01/05 04:43:58;;;;;;;;;;;;;;;7.92;62.23;98544.41;1086400;54;1051;-77
2024/01/05 04:45:02;;;;;;;;;;;;;;;7.99;62.01;98541.91;1086002;47;1091;-77
2024/01/05 04:46:05;;;;;;;;;;;;;;;8.03;61.93;98551.25;1085554;47;1159;-77
2024/01/05 04:47:08;;;;;;;;;;;;;;;8.00;61.79;98543.56;1086016;54;1150;-77
2024/01/05 04:48:09;;;;;;;;;;;;;;;8.01;62.01;98552.41;1086125;47;955;-77
2024/01/05 04:49:12;;;;;;;;;;;;;;;7.92;62.00;98548.88;1086222;47;1143;-77
2024/01/05 04:50:13;;;;;;;;;;;;;;;7.96;62.20;98548.41;1086517;54;1028;-77
2024/01/05 04:51:13;;;;;;;;;;;;;;;7.96;61.89;98545.72;1085765;47;1307;-76
2024/01/05 04:52:17;;;;;;;;;;;;;;;7.93;61.99;98542.56;1085342;47;1059;-77
2024/01/05 04:53:17;;;;;;;;;;;;;;;7.80;62.59;98543.88;1085900;54;1182;-77
2024/01/05 04:54:21;;;;;;;;;;;;;;;7.90;62.30;98546.41;1085769;46;1189;-77
2024/01/05 04:55:22;;;;;;;;;;;;;;;7.92;62.19;98543.56;1086186;54;1106;-77
2024/01/05 04:56:25;;;;;;;;;;;;;;;7.92;62.00;98549.75;1085961;54;1068;-77
2024/01/05 04:57:26;;;;;;;;;;;;;;;7.89;62.18;98552.72;1084495;47;1099;-77
2024/01/05 04:58:29;;;;;;;;;;;;;;;7.89;62.08;98563.34;1085309;54;1176;-76
2024/01/05 04:59:32;;;;;;;;;;;;;;;7.97;62.00;98547.41;1084775;54;1521;-77
2024/01/05 05:00:36;;;;;;;;;;;;;;;8.03;61.72;98551.25;1084975;54;1638;-76
2024/01/05 05:01:37;;;;;;;;;;;;;;;7.95;61.85;98551.22;1084707;54;1400;-77
2024/01/05 05:02:41;;;;;;;;;;;;;;;7.92;62.02;98546.22;1086381;47;1116;-77
2024/01/05 05:03:42;;;;;;;;;;;;;;;8.03;61.92;98545.91;1087209;47;1040;-77
2024/01/05 05:04:46;;;;;;;;;;;;;;;8.06;61.75;98550.91;1086977;47;1163;-77
2024/01/05 05:05:46;;;;;;;;;;;;;;;8.04;61.85;98550.25;1086976;54;1103;-77
2024/01/05 05:06:50;;;;;;;;;;;;;;;8.02;61.80;98543.44;1087124;54;1115;-77
2024/01/05 05:07:51;;;;;;;;;;;;;;;8.06;61.79;98552.72;1087918;54;1857;-76
2024/01/05 05:08:51;;;;;;;;;;;;;;;8.07;61.64;98551.72;1086406;54;1040;-76
2024/01/05 05:09:55;;;;;;;;;;;;;;;8.12;61.53;98552.09;1086001;47;1173;-76
2024/01/05 05:10:55;;;;;;;;;;;;;;;8.14;61.51;98542.09;1087621;54;1155;-77
2024/01/05 05:11:58;;;;;;;;;;;;;;;8.15;61.24;98549.06;1087812;47;1279;-77
2024/01/05 05:12:59;;;;;;;;;;;;;;;8.17;61.17;98541.75;1087989;46;1122;-76
2024/01/05 05:14:03;;;;;;;;;;;;;;;8.22;61.39;98538.59;1087747;47;967;-77
2024/01/05 05:15:13;;;;;;;;;;;;;;;8.27;61.08;98545.09;1087850;46;1248;-77
2024/01/05 05:16:17;;;;;;;;;;;;;;;8.30;61.16;98546.56;1087326;54;1124;-78
2024/01/05 05:17:17;;;;;;;;;;;;;;;8.31;60.97;98547.44;1086185;54;1192;-77
2024/01/05 05:18:21;;;;;;;;;;;;;;;8.35;60.81;98548.75;1086292;54;1150;-77
2024/01/05 05:19:21;;;;;;;;;;;;;;;8.31;60.72;98542.09;1086641;54;1082;-78
2024/01/05 05:20:25;;;;;;;;;;;;;;;8.36;60.81;98550.41;1086111;54;1134;-77
2024/01/05 05:21:26;;;;;;;;;;;;;;;8.39;60.31;98545.56;1086359;54;1352;-77
2024/01/05 05:22:29;;;;;;;;;;;;;;;8.35;60.62;98546.94;1085947;54;1175;-76
2024/01/05 05:23:30;;;;;;;;;;;;;;;8.37;60.42;98552.91;1085285;54;1038;-76
2024/01/05 05:24:34;;;;;;;;;;;;;;;8.48;60.19;98548.25;1085668;47;1138;-76
2024/01/05 05:25:34;;;;;;;;;;;;;;;8.42;60.51;98547.91;1085107;54;1075;-77
2024/01/05 05:26:35;;;;;;;;;;;;;;;8.44;60.27;98558.38;1085555;54;1092;-76
2024/01/05 05:27:38;;;;;;;;;;;;;;;8.39;60.28;98556.22;1086048;54;1852;-75
2024/01/05 05:28:39;;;;;;;;;;;;;;;8.23;60.61;98557.06;1085911;47;1061;-76
2024/01/05 05:29:42;;;;;;;;;;;;;;;8.22;60.88;98554.56;1085799;54;1181;-76
2024/01/05 05:30:45;;;;;;;;;;;;;;;8.31;60.85;98555.41;1085838;47;1141;-76
2024/01/05 05:31:48;;;;;;;;;;;;;;;8.30;60.62;98556.41;1085757;54;1370;-78
2024/01/05 05:32:49;;;;;;;;;;;;;;;8.37;60.68;98546.75;1086914;54;1249;-78
2024/01/05 05:33:50;;;;;;;;;;;;;;;8.27;60.65;98550.41;1086889;46;1208;-78
2024/01/05 05:34:54;;;;;;;;;;;;;;;8.24;61.01;98548.06;1086586;54;1110;-78
2024/01/05 05:35:55;;;;;;;;;;;;;;;8.36;60.61;98543.25;1085940;47;1114;-78
2024/01/05 05:36:58;;;;;;;;;;;;;;;8.36;60.50;98545.09;1085470;47;1218;-75
2024/01/05 05:37:58;;;;;;;;;;;;;;;8.41;60.74;98542.75;1086073;54;1534;-78
2024/01/05 05:38:59;;;;;;;;;;;;;;;8.42;60.66;98544.41;1086456;47;1107;-78
2024/01/05 05:40:03;;;;;;;;;;;;;;;8.51;60.18;98538.09;1085704;54;1118;-78
2024/01/05 05:41:04;;;;;;;;;;;;;;;8.50;60.54;98531.09;1086236;46;1383;-79
2024/01/05 05:42:07;;;;;;;;;;;;;;;8.46;60.30;98532.44;1085778;54;1085;-78
2024/01/05 05:43:07;;;;;;;;;;;;;;;8.45;60.37;98540.59;1085864;54;1100;-80
2024/01/05 05:44:11;;;;;;;;;;;;;;;8.46;60.33;98536.91;1086316;47;1050;-78
2024/01/05 05:45:12;;;;;;;;;;;;;;;8.48;60.28;98541.13;1086108;47;1106;-78
2024/01/05 05:46:18;;;;;;;;;;;;;;;8.48;60.07;98535.78;1085709;54;1107;-79
2024/01/05 05:47:18;;;;;;;;;;;;;;;8.45;60.11;98545.91;1086265;54;1110;-78
2024/01/05 05:48:22;;;;;;;;;;;;;;;8.47;60.20;98534.13;1086140;47;1901;-78
2024/01/05 05:49:23;;;;;;;;;;;;;;;8.40;60.48;98546.44;1086242;54;1182;-78
2024/01/05 05:50:26;;;;;;;;;;;;;;;8.49;60.34;98548.13;1086200;54;1126;-78
2024/01/05 05:51:27;;;;;;;;;;;;;;;8.51;60.08;98538.09;1086176;47;1291;-78
2024/01/05 05:52:30;;;;;;;;;;;;;;;8.45;60.21;98537.94;1086414;47;1533;-79
2024/01/05 05:53:31;;;;;;;;;;;;;;;8.43;60.15;98544.25;1085875;47;1122;-77
2024/01/05 05:54:35;;;;;;;;;;;;;;;8.40;60.71;98544.59;1086614;46;1190;-79
2024/01/05 05:55:36;;;;;;;;;;;;;;;8.50;60.33;98539.09;1086830;47;1029;-78
2024/01/05 05:56:39;;;;;;;;;;;;;;;8.53;60.22;98538.78;1086465;47;1109;-79
2024/01/05 05:57:40;;;;;;;;;;;;;;;8.58;60.14;98533.78;1086325;54;1198;-79
2024/01/05 05:58:43;;;;;;;;;;;;;;;8.57;60.14;98536.59;1086464;54;1632;-78
2024/01/05 05:59:44;;;;;;;;;;;;;;;8.59;60.13;98539.94;1086171;54;1222;-78
2024/01/05 06:00:49;;;;;;;;;;;;;;;8.53;60.47;98529.97;1086569;54;1142;-77
2024/01/05 06:01:52;;;;;;;;;;;;;;;8.53;60.61;98527.31;1086940;46;1652;-78
2024/01/05 06:02:55;;;;;;;;;;;;;;;8.51;60.39;98530.09;1086365;47;1183;-79
2024/01/05 06:03:56;;;;;;;;;;;;;;;8.46;60.78;98529.75;1086418;47;1058;-78
2024/01/05 06:05:00;;;;;;;;;;;;;;;8.47;60.39;98534.13;1086445;54;1444;-76
2024/01/05 06:06:00;;;;;;;;;;;;;;;8.47;60.68;98531.47;1086834;54;1076;-76
2024/01/05 06:07:04;;;;;;;;;;;;;;;8.43;60.83;98543.41;1087014;47;1099;-78
2024/01/05 06:08:05;;;;;;;;;;;;;;;8.42;60.84;98533.75;1086453;54;1852;-76
2024/01/05 06:09:08;;;;;;;;;;;;;;;8.31;60.89;98539.44;1086343;47;1163;-76
2024/01/05 06:10:09;;;;;;;;;;;;;;;8.34;60.95;98536.44;1086517;54;1163;-77
2024/01/05 06:11:10;;;;;;;;;;;;;;;8.30;61.02;98540.44;1086691;54;1309;-76
2024/01/05 06:12:13;;;;;;;;;;;;;;;8.36;60.78;98537.09;1086322;47;1154;-75